Time;durP1;ratioP1;P1;durP2;ratioP2;P2;SDS_P1;SDS_P2;PMS_P1;PMS_P2;Temp;Humidity;BMP_temperature;BMP_pressure;BME280_temperature;BME280_humidity;BME280_pressure;Samples;Min_cycle;Max_cycle;Signal;HPM_P1;HPM_P2
2023/12/13 00:02:26;;;;;;;95.10;19.60;;;;;8.60;94813.00;;;;8335019;28;20294;-72
2023/12/13 00:06:30;;;;;;;95.80;19.25;;;;;8.60;94804.00;;;;8335094;28;20194;-72
2023/12/13 00:10:33;;;;;;;82.70;19.40;;;;;8.70;94805.00;;;;8334739;28;20241;-72
2023/12/13 00:14:37;;;;;;;74.93;18.92;;;;;8.80;94808.00;;;;8334074;28;20194;-72
2023/12/13 00:18:40;;;;;;;59.00;17.02;;;;;8.80;94801.00;;;;8334660;28;20595;-73
2023/12/13 00:22:44;;;;;;;81.25;19.20;;;;;8.80;94802.00;;;;8333625;28;20227;-74
2023/12/13 00:26:50;;;;;;;102.53;19.10;;;;;8.90;94802.00;;;;8334463;28;20295;-73
2023/12/13 00:30:53;;;;;;;64.53;17.55;;;;;8.90;94802.00;;;;8335115;28;20208;-74
2023/12/13 00:34:56;;;;;;;226.68;24.67;;;;;8.90;94787.00;;;;8334237;28;20669;-75
2023/12/13 00:39:01;;;;;;;78.35;19.15;;;;;8.90;94800.00;;;;8334334;28;20619;-75
2023/12/13 00:43:05;;;;;;;62.63;16.92;;;;;8.90;94798.00;;;;8334343;28;20718;-75
2023/12/13 00:47:08;;;;;;;58.33;15.90;;;;;9.00;94795.00;;;;8333637;28;20239;-78
2023/12/13 00:51:16;;;;;;;63.72;14.20;;;;;9.00;94792.00;;;;8334445;28;20590;-77
2023/12/13 00:55:21;;;;;;;44.92;13.45;;;;;9.10;94802.00;;;;8333845;28;20269;-74
2023/12/13 00:59:24;;;;;;;52.95;12.10;;;;;9.10;94808.00;;;;8333542;28;20246;-75
2023/12/13 01:03:27;;;;;;;51.80;13.35;;;;;9.10;94810.00;;;;8333082;28;20332;-75
2023/12/13 01:07:32;;;;;;;15.20;6.00;;;;;9.10;94816.00;;;;8333270;28;20648;-80
2023/12/13 01:11:37;;;;;;;15.70;6.13;;;;;9.10;94817.00;;;;8332996;28;20177;-76
2023/12/13 01:15:43;;;;;;;18.73;6.45;;;;;9.10;94813.00;;;;8332603;28;20273;-76
2023/12/13 01:19:46;;;;;;;20.92;6.80;;;;;9.10;94801.00;;;;8332405;28;20236;-76
2023/12/13 01:23:49;;;;;;;17.23;6.78;;;;;9.20;94801.00;;;;8333272;28;20209;-74
2023/12/13 01:27:57;;;;;;;12.15;5.15;;;;;9.20;94802.00;;;;8330174;28;20197;-75
2023/12/13 01:32:00;;;;;;;12.25;5.50;;;;;9.20;94807.00;;;;8331937;28;20206;-75
2023/12/13 01:36:04;;;;;;;18.60;6.40;;;;;9.20;94813.00;;;;8332941;28;20235;-74
2023/12/13 01:40:08;;;;;;;10.18;4.38;;;;;9.20;94817.00;;;;8332366;28;20201;-72
2023/12/13 01:44:13;;;;;;;9.32;3.85;;;;;9.10;94812.00;;;;8332117;28;20739;-73
2023/12/13 01:48:16;;;;;;;6.97;3.33;;;;;9.10;94810.00;;;;8331882;28;20706;-73
2023/12/13 01:52:20;;;;;;;7.50;3.10;;;;;9.00;94801.00;;;;8332006;28;20229;-74
2023/12/13 01:56:23;;;;;;;4.35;2.90;;;;;9.00;94808.00;;;;8333184;28;20240;-73
2023/12/13 02:00:27;;;;;;;5.55;2.45;;;;;9.00;94799.00;;;;8331362;28;20757;-73
2023/12/13 02:04:31;;;;;;;2.30;2.10;;;;;8.90;94790.00;;;;8303297;28;20253;-74
2023/12/13 02:08:34;;;;;;;3.10;2.17;;;;;8.90;94785.00;;;;8299234;28;20263;-74
2023/12/13 02:12:41;;;;;;;4.13;1.77;;;;;9.00;94772.00;;;;8298499;28;20228;-73
2023/12/13 02:16:45;;;;;;;1.67;1.58;;;;;9.00;94766.00;;;;8299615;28;20244;-74
2023/12/13 02:20:51;;;;;;;5.32;2.05;;;;;9.00;94779.00;;;;8298390;28;20236;-73
2023/12/13 02:24:59;;;;;;;3.53;2.10;;;;;8.90;94772.00;;;;8300258;28;20214;-75
2023/12/13 02:29:03;;;;;;;2.92;1.75;;;;;8.90;94759.00;;;;8297691;28;20187;-73
2023/12/13 02:33:07;;;;;;;1.50;1.40;;;;;8.80;94755.00;;;;8298474;28;20513;-73
2023/12/13 02:37:11;;;;;;;2.47;1.50;;;;;8.60;94768.00;;;;8299125;28;20206;-73
2023/12/13 02:41:15;;;;;;;5.93;1.40;;;;;8.50;94759.00;;;;8298483;28;20280;-72
2023/12/13 02:45:20;;;;;;;1.75;1.30;;;;;8.40;94765.00;;;;8297973;28;20321;-72
2023/12/13 02:49:24;;;;;;;1.45;1.30;;;;;8.30;94770.00;;;;8298041;28;20233;-72
2023/12/13 02:53:27;;;;;;;2.92;1.40;;;;;8.10;94762.00;;;;8298326;28;20191;-72
2023/12/13 02:57:32;;;;;;;1.92;1.40;;;;;8.00;94754.00;;;;8298095;28;20217;-72
2023/12/13 03:01:35;;;;;;;1.30;1.20;;;;;7.80;94765.00;;;;8331477;23;20687;-71
2023/12/13 03:05:39;;;;;;;1.77;1.50;;;;;7.70;94764.00;;;;8331414;28;20232;-72
2023/12/13 03:09:42;;;;;;;2.95;1.38;;;;;7.60;94751.00;;;;8345035;28;20193;-71
2023/12/13 03:13:46;;;;;;;1.40;1.30;;;;;7.50;94750.00;;;;8345293;28;20883;-72
2023/12/13 03:17:49;;;;;;;1.50;1.40;;;;;7.40;94756.00;;;;8352970;28;20606;-72
2023/12/13 03:21:53;;;;;;;2.83;1.40;;;;;7.30;94743.00;;;;8338436;28;20274;-72
2023/12/13 03:25:56;;;;;;;5.90;1.50;;;;;7.20;94755.00;;;;8340176;28;21038;-72
2023/12/13 03:30:00;;;;;;;1.33;1.27;;;;;7.10;94761.00;;;;8345851;28;20292;-72
2023/12/13 03:34:04;;;;;;;3.10;1.30;;;;;7.00;94765.00;;;;8336763;28;20288;-72
2023/12/13 03:38:08;;;;;;;1.20;1.20;;;;;6.80;94754.00;;;;8353873;28;20204;-72
2023/12/13 03:42:12;;;;;;;1.50;1.40;;;;;6.70;94762.00;;;;8348371;28;20288;-72
2023/12/13 03:46:16;;;;;;;7.33;1.40;;;;;6.60;94764.00;;;;8335997;28;20265;-71
2023/12/13 03:50:20;;;;;;;1.30;1.20;;;;;6.50;94764.00;;;;8340772;28;20204;-71
2023/12/13 03:54:23;;;;;;;3.03;1.40;;;;;6.50;94765.00;;;;8337656;28;20201;-71
2023/12/13 03:58:26;;;;;;;3.10;1.20;;;;;6.50;94759.00;;;;8345661;28;20315;-71
2023/12/13 04:02:31;;;;;;;1.73;1.30;;;;;6.50;94766.00;;;;8342010;28;20224;-72
2023/12/13 04:06:34;;;;;;;1.20;1.20;;;;;6.50;94763.00;;;;8346071;28;20315;-71
2023/12/13 04:10:37;;;;;;;3.23;1.27;;;;;6.60;94763.00;;;;8342878;28;20332;-72
2023/12/13 04:14:40;;;;;;;7.10;1.93;;;;;6.70;94761.00;;;;8347236;28;20201;-71
2023/12/13 04:18:45;;;;;;;5.13;1.93;;;;;6.90;94764.00;;;;8334179;28;20915;-72
2023/12/13 04:22:48;;;;;;;7.90;1.53;;;;;7.00;94766.00;;;;8337401;28;20224;-71
2023/12/13 04:26:51;;;;;;;7.23;1.40;;;;;7.10;94767.00;;;;8340865;28;20403;-72
2023/12/13 04:30:54;;;;;;;2.15;1.60;;;;;7.20;94769.00;;;;8340392;28;20618;-73
2023/12/13 04:34:59;;;;;;;2.17;1.30;;;;;7.30;94759.00;;;;8345066;28;20235;-72
2023/12/13 04:39:03;;;;;;;2.87;1.47;;;;;7.40;94760.00;;;;8347332;28;20220;-71
2023/12/13 04:43:06;;;;;;;3.13;1.05;;;;;7.40;94762.00;;;;8342144;28;20231;-72
2023/12/13 04:47:09;;;;;;;4.72;1.50;;;;;7.50;94759.00;;;;8336793;28;20699;-72
2023/12/13 04:51:14;;;;;;;2.07;1.37;;;;;7.50;94772.00;;;;8344630;28;20205;-73
2023/12/13 04:55:17;;;;;;;52.28;19.35;;;;;7.60;94770.00;;;;8330244;28;20208;-73
2023/12/13 04:59:20;;;;;;;6.47;2.80;;;;;7.70;94781.00;;;;8341193;28;20839;-72
2023/12/13 05:03:23;;;;;;;1.60;1.50;;;;;7.70;94765.00;;;;8333957;28;20229;-73
2023/12/13 05:07:28;;;;;;;2.63;1.50;;;;;7.80;94754.00;;;;8341487;28;20204;-72
2023/12/13 05:11:31;;;;;;;2.75;1.50;;;;;7.90;94760.00;;;;8340236;28;20248;-74
2023/12/13 05:15:35;;;;;;;10.20;1.95;;;;;7.90;94760.00;;;;8340997;28;20203;-74
2023/12/13 05:19:38;;;;;;;1.50;1.40;;;;;7.90;94761.00;;;;8341592;28;20252;-74
2023/12/13 05:23:42;;;;;;;6.95;2.60;;;;;7.90;94772.00;;;;8339093;28;20315;-72
2023/12/13 05:27:45;;;;;;;3.50;1.20;;;;;8.00;94769.00;;;;8346534;28;20827;-73
2023/12/13 05:31:48;;;;;;;3.00;1.20;;;;;8.00;94764.00;;;;8333514;28;20292;-73
2023/12/13 05:35:51;;;;;;;5.43;1.30;;;;;8.00;94770.00;;;;8345913;28;20566;-74
2023/12/13 05:39:56;;;;;;;3.77;1.50;;;;;8.10;94778.00;;;;8342205;28;20722;-72
2023/12/13 05:43:59;;;;;;;3.15;1.40;;;;;8.10;94770.00;;;;8340041;28;20338;-73
2023/12/13 05:48:02;;;;;;;1.70;1.42;;;;;8.10;94770.00;;;;8335701;28;20204;-72
2023/12/13 05:52:06;;;;;;;3.17;1.30;;;;;8.00;94764.00;;;;8348880;28;20204;-73
2023/12/13 05:56:12;;;;;;;1.67;1.13;;;;;8.00;94758.00;;;;8342736;28;20316;-74
2023/12/13 06:00:16;;;;;;;2.75;1.42;;;;;8.00;94764.00;;;;8343370;28;20200;-73
2023/12/13 06:04:19;;;;;;;1.50;1.40;;;;;8.00;94755.00;;;;8338604;28;20229;-73
2023/12/13 06:08:22;;;;;;;3.80;1.55;;;;;8.00;94752.00;;;;8343773;28;20205;-72
2023/12/13 06:12:27;;;;;;;3.53;1.40;;;;;7.90;94757.00;;;;8341386;28;20205;-73
2023/12/13 06:16:30;;;;;;;5.10;1.50;;;;;7.80;94757.00;;;;8337292;28;20201;-72
2023/12/13 06:20:33;;;;;;;8.23;1.63;;;;;7.90;94756.00;;;;8334485;28;20601;-73
2023/12/13 06:24:36;;;;;;;2.43;1.50;;;;;7.80;94749.00;;;;8335069;28;20311;-73
2023/12/13 06:28:41;;;;;;;3.70;1.70;;;;;7.70;94748.00;;;;8345363;28;20222;-73
2023/12/13 06:32:44;;;;;;;8.67;1.70;;;;;7.70;94757.00;;;;8346955;28;20737;-73
2023/12/13 06:36:47;;;;;;;5.17;1.70;;;;;7.60;94756.00;;;;8346195;28;20201;-73
2023/12/13 06:40:50;;;;;;;5.65;1.60;;;;;7.50;94742.00;;;;8354994;28;20302;-73
2023/12/13 06:44:55;;;;;;;2.70;1.70;;;;;7.50;94742.00;;;;8338001;28;20221;-73
2023/12/13 06:48:58;;;;;;;3.55;1.90;;;;;7.50;94739.00;;;;8352009;28;20646;-73
2023/12/13 06:53:01;;;;;;;9.17;2.10;;;;;7.40;94748.00;;;;8342089;28;20761;-74
2023/12/13 06:57:06;;;;;;;5.05;2.00;;;;;7.40;94748.00;;;;8350811;28;20219;-74
2023/12/13 07:01:11;;;;;;;5.67;2.43;;;;;7.30;94758.00;;;;8337205;28;20308;-74
2023/12/13 07:05:14;;;;;;;63.00;4.90;;;;;7.40;94759.00;;;;8341051;28;20750;-72
2023/12/13 07:09:18;;;;;;;7.40;2.30;;;;;7.30;94760.00;;;;8339973;28;20202;-69
2023/12/13 07:13:21;;;;;;;5.57;3.08;;;;;7.30;94751.00;;;;8344472;28;20205;-68
2023/12/13 07:17:25;;;;;;;6.90;2.90;;;;;7.30;94742.00;;;;8351676;28;20239;-68
2023/12/13 07:21:29;;;;;;;8.87;2.73;;;;;7.40;94737.00;;;;8351271;28;20203;-69
2023/12/13 07:25:32;;;;;;;6.67;2.77;;;;;7.40;94731.00;;;;8341935;28;20316;-70
2023/12/13 07:29:35;;;;;;;6.40;2.80;;;;;7.30;94733.00;;;;8345751;28;20212;-69
2023/12/13 07:33:40;;;;;;;7.83;2.97;;;;;7.30;94740.00;;;;8356097;28;20314;-70
2023/12/13 07:37:44;;;;;;;12.18;7.00;;;;;7.30;94738.00;;;;8349906;28;20204;-69
2023/12/13 07:41:47;;;;;;;10.70;3.90;;;;;7.40;94734.00;;;;8349953;28;20201;-69
2023/12/13 07:45:52;;;;;;;7.10;3.70;;;;;7.40;94736.00;;;;8346230;28;20235;-72
2023/12/13 07:49:57;;;;;;;10.53;4.07;;;;;7.40;94735.00;;;;8339550;28;20241;-73
2023/12/13 07:54:03;;;;;;;5.80;3.87;;;;;7.40;94740.00;;;;8354429;28;20640;-73
2023/12/13 07:58:06;;;;;;;13.37;3.90;;;;;7.40;94729.00;;;;8344946;28;20193;-73
2023/12/13 08:02:12;;;;;;;8.40;3.80;;;;;7.30;94725.00;;;;8346691;28;20229;-71
2023/12/13 08:06:19;;;;;;;239.77;10.83;;;;;7.20;94722.00;;;;8346441;28;20264;-71
2023/12/13 08:10:23;;;;;;;171.80;9.50;;;;;7.10;94716.00;;;;8343773;28;20288;-72
2023/12/13 08:14:30;;;;;;;13.37;4.53;;;;;7.10;94721.00;;;;8339974;28;20250;-71
2023/12/13 08:18:34;;;;;;;24.93;5.37;;;;;7.20;94719.00;;;;8339227;28;20250;-71
2023/12/13 08:22:38;;;;;;;10.80;5.60;;;;;7.40;94724.00;;;;8340351;28;20316;-72
2023/12/13 08:26:42;;;;;;;10.47;5.57;;;;;7.60;94734.00;;;;8345161;28;20241;-72
2023/12/13 08:30:45;;;;;;;21.02;6.47;;;;;7.80;94719.00;;;;8342276;28;21211;-70
2023/12/13 08:34:48;;;;;;;12.97;5.50;;;;;7.90;94714.00;;;;8339879;28;20193;-70
2023/12/13 08:38:53;;;;;;;11.90;5.43;;;;;8.10;94712.00;;;;8347096;28;20270;-71
2023/12/13 08:42:56;;;;;;;16.08;5.90;;;;;8.30;94703.00;;;;8342631;28;20330;-70
2023/12/13 08:46:59;;;;;;;13.60;5.53;;;;;8.40;94728.00;;;;8344147;28;20312;-71
2023/12/13 08:51:02;;;;;;;11.27;5.60;;;;;8.40;94734.00;;;;8342177;28;20205;-72
2023/12/13 08:55:09;;;;;;;14.25;6.13;;;;;8.50;94742.00;;;;8340239;28;20205;-71
2023/12/13 08:59:12;;;;;;;13.38;6.22;;;;;8.60;94737.00;;;;8352322;28;20709;-71
2023/12/13 09:03:15;;;;;;;13.63;6.20;;;;;8.70;94735.00;;;;8334149;28;20286;-71
2023/12/13 09:07:18;;;;;;;14.73;6.15;;;;;8.80;94731.00;;;;8315345;28;20271;-71
2023/12/13 09:11:23;;;;;;;12.25;5.80;;;;;8.90;94731.00;;;;8312606;28;20206;-71
2023/12/13 09:15:26;;;;;;;15.23;5.57;;;;;9.00;94738.00;;;;8313541;28;20721;-72
2023/12/13 09:19:29;;;;;;;15.15;5.65;;;;;9.10;94735.00;;;;8300352;28;20206;-72
2023/12/13 09:23:36;;;;;;;11.60;5.75;;;;;9.30;94728.00;;;;8311177;28;20194;-72
2023/12/13 09:27:40;;;;;;;11.10;5.30;;;;;9.50;94720.00;;;;8313332;28;20315;-71
2023/12/13 09:31:43;;;;;;;11.90;5.03;;;;;9.60;94730.00;;;;8318576;28;20202;-71
2023/12/13 09:35:46;;;;;;;11.20;4.90;;;;;9.60;94717.00;;;;8312113;28;20199;-72
2023/12/13 09:39:50;;;;;;;9.23;4.40;;;;;9.80;94711.00;;;;8320355;28;20202;-72
2023/12/13 09:43:59;;;;;;;13.45;4.88;;;;;10.00;94711.00;;;;8311899;28;20200;-72
2023/12/13 09:48:03;;;;;;;7.03;4.18;;;;;10.10;94703.00;;;;8310567;28;20235;-72
2023/12/13 09:52:09;;;;;;;8.50;4.25;;;;;10.20;94695.00;;;;8306980;28;20200;-72
2023/12/13 09:56:12;;;;;;;7.47;4.50;;;;;10.30;94681.00;;;;8318868;28;20617;-72
2023/12/13 10:00:18;;;;;;;6.63;3.50;;;;;10.30;94681.00;;;;8321121;28;20748;-72
2023/12/13 10:04:21;;;;;;;7.95;3.67;;;;;10.40;94685.00;;;;8342276;28;20231;-72
2023/12/13 10:08:24;;;;;;;6.05;3.47;;;;;10.40;94682.00;;;;8341566;28;20704;-72
2023/12/13 10:12:27;;;;;;;7.88;2.80;;;;;10.30;94685.00;;;;8345923;28;20228;-72
2023/12/13 10:16:39;;;;;;;9.95;3.17;;;;;10.10;94695.00;;;;8338326;28;20331;-71
2023/12/13 10:20:42;;;;;;;8.52;3.03;;;;;10.00;94698.00;;;;8349334;28;20262;-71
2023/12/13 10:24:46;;;;;;;5.85;2.60;;;;;10.10;94678.00;;;;8339440;28;20336;-72
2023/12/13 10:28:49;;;;;;;3.80;2.67;;;;;10.20;94671.00;;;;8348360;28;20890;-71
2023/12/13 10:32:53;;;;;;;5.50;2.70;;;;;10.30;94671.00;;;;8347976;28;20463;-72
2023/12/13 10:36:57;;;;;;;6.03;2.35;;;;;10.50;94696.00;;;;8343975;28;20262;-72
2023/12/13 10:41:01;;;;;;;3.90;2.50;;;;;10.60;94684.00;;;;8352316;28;20334;-72
2023/12/13 10:45:10;;;;;;;11.85;3.15;;;;;10.60;94683.00;;;;8341488;28;20201;-73
2023/12/13 10:49:16;;;;;;;9.52;2.80;;;;;10.50;94681.00;;;;8341422;28;20205;-73
2023/12/13 10:53:21;;;;;;;7.88;3.40;;;;;10.70;94681.00;;;;8345417;28;20924;-72
2023/12/13 10:57:24;;;;;;;4.10;2.90;;;;;11.00;94678.00;;;;8342880;28;20310;-71
2023/12/13 11:01:28;;;;;;;6.15;2.70;;;;;11.30;94680.00;;;;8332292;28;20287;-73
2023/12/13 11:05:33;;;;;;;3.70;2.10;;;;;11.50;94677.00;;;;8332822;28;20211;-72
2023/12/13 11:09:37;;;;;;;2.10;1.90;;;;;11.50;94674.00;;;;8352738;28;20205;-71
2023/12/13 11:13:47;;;;;;;3.53;2.40;;;;;11.40;94666.00;;;;8340188;28;20280;-74
2023/12/13 11:17:54;;;;;;;5.03;2.25;;;;;11.40;94662.00;;;;8331225;28;20725;-72
2023/12/13 11:21:59;;;;;;;5.35;2.53;;;;;11.50;94668.00;;;;8337392;28;20208;-72
2023/12/13 11:26:14;;;;;;;5.07;2.30;;;;;11.50;94659.00;;;;8333977;28;20227;-73
2023/12/13 11:30:19;;;;;;;3.83;2.63;;;;;11.30;94658.00;;;;8341363;28;20255;-71
2023/12/13 11:34:35;;;;;;;3.28;2.33;;;;;11.20;94659.00;;;;8338508;28;20201;-71
2023/12/13 11:38:40;;;;;;;5.80;3.00;;;;;11.10;94655.00;;;;8339778;28;21031;-72
2023/12/13 11:42:43;;;;;;;4.93;2.67;;;;;11.20;94652.00;;;;8340822;28;20201;-72
2023/12/13 11:46:54;;;;;;;6.47;3.08;;;;;11.10;94647.00;;;;8348590;28;20219;-71
2023/12/13 11:50:57;;;;;;;6.60;3.10;;;;;11.10;94653.00;;;;8368231;28;20185;-71
2023/12/13 11:55:02;;;;;;;11.07;3.47;;;;;11.00;94652.00;;;;8369454;28;20585;-71
2023/12/13 11:59:06;;;;;;;6.20;3.42;;;;;10.90;94649.00;;;;8368742;28;20614;-72
2023/12/13 12:03:09;;;;;;;7.65;3.72;;;;;10.60;94641.00;;;;8367729;28;20697;-69
2023/12/13 12:07:14;;;;;;;8.30;3.90;;;;;10.50;94645.00;;;;8369022;28;20242;-69
2023/12/13 12:11:21;;;;;;;9.50;3.53;;;;;10.40;94650.00;;;;8368236;28;20288;-69
2023/12/13 12:15:24;;;;;;;17.17;4.30;;;;;10.10;94656.00;;;;8367973;28;20270;-85
2023/12/13 12:19:28;;;;;;;13.25;4.50;;;;;9.90;94649.00;;;;8367664;28;20586;-83
2023/12/13 12:23:35;;;;;;;7.18;3.97;;;;;9.80;94656.00;;;;8367873;28;20205;-72
2023/12/13 12:27:46;;;;;;;9.48;3.38;;;;;9.60;94657.00;;;;8367396;28;20346;-72
2023/12/13 12:31:49;;;;;;;5.38;3.47;;;;;9.60;94651.00;;;;8367513;28;20522;-82
2023/12/13 12:35:52;;;;;;;4.40;2.80;;;;;9.60;94654.00;;;;8366328;28;20198;-78
2023/12/13 12:39:56;;;;;;;2.92;2.22;;;;;9.60;94648.00;;;;8367536;28;20191;-77
2023/12/13 12:44:04;;;;;;;1.77;1.67;;;;;9.50;94647.00;;;;8366465;28;20249;-73
2023/12/13 12:48:07;;;;;;;2.13;2.03;;;;;9.30;94647.00;;;;8365900;28;20268;-72
2023/12/13 12:52:10;;;;;;;4.10;2.55;;;;;9.20;94640.00;;;;8367471;28;20192;-71
2023/12/13 12:56:13;;;;;;;12.55;5.47;;;;;9.20;94634.00;;;;8365241;28;20207;-71
2023/12/13 13:00:19;;;;;;;2.97;1.67;;;;;9.30;94638.00;;;;8366309;28;20203;-72
2023/12/13 13:04:22;;;;;;;3.65;2.35;;;;;9.50;94643.00;;;;8367575;28;20227;-71
2023/12/13 13:08:25;;;;;;;5.63;1.92;;;;;9.70;94642.00;;;;8366772;28;20666;-72
2023/12/13 13:12:28;;;;;;;5.82;2.28;;;;;9.90;94633.00;;;;8366977;28;20196;-72
2023/12/13 13:16:36;;;;;;;8.60;2.25;;;;;10.10;94643.00;;;;8365966;28;20235;-72
2023/12/13 13:20:40;;;;;;;2.47;1.80;;;;;10.10;94641.00;;;;8367651;28;20177;-72
2023/12/13 13:24:43;;;;;;;1.60;1.50;;;;;10.10;94644.00;;;;8364021;28;20197;-70
2023/12/13 13:28:47;;;;;;;2.30;1.80;;;;;10.10;94645.00;;;;8364352;28;20627;-71
2023/12/13 13:32:53;;;;;;;1.70;1.60;;;;;10.10;94641.00;;;;8365397;28;20195;-71
2023/12/13 13:36:58;;;;;;;1.60;1.50;;;;;10.10;94629.00;;;;8365681;28;20271;-71
2023/12/13 13:41:03;;;;;;;4.03;1.88;;;;;10.10;94637.00;;;;8364049;28;20181;-72
2023/12/13 13:45:07;;;;;;;3.63;1.95;;;;;10.10;94628.00;;;;8365340;28;20633;-72
2023/12/13 13:49:12;;;;;;;3.90;2.20;;;;;10.10;94634.00;;;;8364727;28;20259;-72
2023/12/13 13:53:15;;;;;;;3.63;2.25;;;;;10.10;94635.00;;;;8364084;28;20258;-72
2023/12/13 13:57:19;;;;;;;3.78;2.30;;;;;10.00;94631.00;;;;8364554;28;20228;-72
2023/12/13 14:01:23;;;;;;;4.82;2.40;;;;;9.90;94634.00;;;;8362997;28;20202;-71
2023/12/13 14:05:34;;;;;;;3.55;2.40;;;;;9.80;94629.00;;;;8363578;28;20185;-71
2023/12/13 14:09:40;;;;;;;3.10;2.40;;;;;9.80;94630.00;;;;8363890;28;20221;-72
2023/12/13 14:13:43;;;;;;;3.20;2.63;;;;;9.90;94644.00;;;;8364107;28;20236;-71
2023/12/13 14:17:47;;;;;;;5.10;2.83;;;;;9.90;94641.00;;;;8364964;28;20258;-71
2023/12/13 14:21:52;;;;;;;3.92;3.08;;;;;9.90;94644.00;;;;8365215;28;20191;-72
2023/12/13 14:25:55;;;;;;;7.53;3.10;;;;;9.90;94640.00;;;;8364970;28;20238;-71
2023/12/13 14:29:58;;;;;;;3.53;2.75;;;;;10.00;94643.00;;;;8364013;28;20228;-71
2023/12/13 14:34:01;;;;;;;17.67;10.30;;;;;9.90;94645.00;;;;8363486;28;20275;-69
2023/12/13 14:38:06;;;;;;;10.93;8.05;;;;;9.90;94649.00;;;;8364251;28;20650;-70
2023/12/13 14:42:09;;;;;;;4.53;2.90;;;;;9.80;94648.00;;;;8363951;28;20195;-69
2023/12/13 14:46:14;;;;;;;5.65;4.05;;;;;9.90;94658.00;;;;8363478;28;20202;-72
2023/12/13 14:50:18;;;;;;;12.45;7.05;;;;;9.80;94654.00;;;;8364661;28;20561;-70
2023/12/13 14:54:22;;;;;;;18.70;13.05;;;;;9.70;94657.00;;;;8363237;28;20289;-70
2023/12/13 14:58:28;;;;;;;10.57;8.40;;;;;9.70;94660.00;;;;8364142;28;20197;-71
2023/12/13 15:02:35;;;;;;;4.95;3.47;;;;;9.60;94646.00;;;;8369509;28;20225;-71
2023/12/13 15:06:39;;;;;;;6.30;3.20;;;;;9.50;94649.00;;;;8368725;28;20326;-70
2023/12/13 15:10:43;;;;;;;11.75;8.18;;;;;9.50;94658.00;;;;8370438;28;20319;-69
2023/12/13 15:14:46;;;;;;;19.50;10.20;;;;;9.50;94658.00;;;;8370166;28;20303;-70
2023/12/13 15:19:06;;;;;;;10.98;6.90;;;;;9.50;94666.00;;;;8379798;28;20212;-69
2023/12/13 15:23:09;;;;;;;9.70;5.63;;;;;9.40;94657.00;;;;8366533;28;20201;-69
2023/12/13 15:27:16;;;;;;;12.80;5.85;;;;;9.40;94652.00;;;;8366350;28;20226;-69
2023/12/13 15:31:20;;;;;;;18.15;7.90;;;;;9.40;94668.00;;;;8369791;28;20190;-70
2023/12/13 15:35:23;;;;;;;9.03;5.93;;;;;9.40;94677.00;;;;8369242;28;20555;-71
2023/12/13 15:39:26;;;;;;;10.95;6.60;;;;;9.40;94677.00;;;;8368318;28;20240;-71
2023/12/13 15:43:31;;;;;;;119.15;11.27;;;;;9.30;94671.00;;;;8369371;28;20197;-71
2023/12/13 15:47:35;;;;;;;16.92;9.40;;;;;9.10;94676.00;;;;8368871;28;20581;-70
2023/12/13 15:51:38;;;;;;;18.95;7.53;;;;;9.10;94667.00;;;;8368093;28;20598;-72
2023/12/13 15:55:41;;;;;;;21.33;7.18;;;;;9.00;94677.00;;;;8368390;28;20275;-71
2023/12/13 15:59:46;;;;;;;16.05;8.18;;;;;8.90;94682.00;;;;8367685;28;20193;-71
2023/12/13 16:03:50;;;;;;;22.13;9.07;;;;;8.90;94689.00;;;;8367992;28;20224;-72
2023/12/13 16:07:53;;;;;;;15.27;8.13;;;;;8.90;94698.00;;;;8368042;28;20743;-72
2023/12/13 16:11:56;;;;;;;13.80;8.05;;;;;8.90;94694.00;;;;8367190;28;20193;-71
2023/12/13 16:16:01;;;;;;;18.88;8.23;;;;;8.90;94695.00;;;;8367728;28;20204;-71
2023/12/13 16:20:05;;;;;;;14.65;7.78;;;;;8.90;94700.00;;;;8367125;28;20283;-72
2023/12/13 16:24:08;;;;;;;15.23;7.03;;;;;8.90;94697.00;;;;8366771;28;20274;-71
2023/12/13 16:28:11;;;;;;;22.25;8.27;;;;;8.90;94694.00;;;;8367382;28;20232;-72
2023/12/13 16:32:16;;;;;;;12.25;6.35;;;;;8.80;94704.00;;;;8367826;28;20250;-72
2023/12/13 16:36:19;;;;;;;13.63;6.50;;;;;8.80;94701.00;;;;8368030;28;20223;-72
2023/12/13 16:40:22;;;;;;;16.80;7.53;;;;;8.70;94704.00;;;;8367116;28;20192;-71
2023/12/13 16:44:25;;;;;;;14.35;6.50;;;;;8.70;94706.00;;;;8367465;28;20626;-71
2023/12/13 16:48:30;;;;;;;13.68;6.70;;;;;8.80;94708.00;;;;8367159;28;20216;-71
2023/12/13 16:52:33;;;;;;;16.63;7.32;;;;;8.80;94711.00;;;;8366715;28;20188;-72
2023/12/13 16:56:37;;;;;;;14.45;7.03;;;;;8.70;94711.00;;;;8368212;28;20196;-70
2023/12/13 17:00:41;;;;;;;14.35;7.13;;;;;8.80;94707.00;;;;8366535;28;20239;-71
2023/12/13 17:04:48;;;;;;;19.05;8.45;;;;;8.80;94703.00;;;;8367780;28;20569;-72
2023/12/13 17:08:51;;;;;;;14.73;7.40;;;;;8.80;94712.00;;;;8365945;28;20209;-71
2023/12/13 17:12:55;;;;;;;15.80;7.28;;;;;8.70;94706.00;;;;8366583;28;20252;-70
2023/12/13 17:16:58;;;;;;;14.55;7.35;;;;;8.60;94701.00;;;;8365649;28;20280;-70
2023/12/13 17:21:04;;;;;;;36.73;8.37;;;;;8.60;94702.00;;;;8365396;28;20197;-70
2023/12/13 17:25:09;;;;;;;14.65;7.28;;;;;8.50;94718.00;;;;8364963;28;20205;-80
2023/12/13 17:29:14;;;;;;;32.90;19.10;;;;;8.50;94725.00;;;;8366151;28;20566;-79
2023/12/13 17:33:28;;;;;;;80.40;20.83;;;;;8.40;94732.00;;;;8366360;28;20602;-81
2023/12/13 17:37:33;;;;;;;114.67;26.07;;;;;8.40;94728.00;;;;8366667;28;20220;-81
2023/12/13 17:41:36;;;;;;;372.27;48.83;;;;;8.30;94729.00;;;;8365779;28;20200;-80
2023/12/13 17:45:39;;;;;;;285.03;19.27;;;;;8.30;94738.00;;;;8365666;28;20224;-81
2023/12/13 17:49:43;;;;;;;315.33;26.27;;;;;8.20;94733.00;;;;8365451;28;20227;-81
2023/12/13 17:53:47;;;;;;;285.67;22.85;;;;;8.10;94736.00;;;;8365533;28;20197;-82
2023/12/13 17:57:51;;;;;;;239.10;20.87;;;;;8.00;94739.00;;;;8364626;28;20200;-82
2023/12/13 18:01:54;;;;;;;192.53;16.57;;;;;8.00;94734.00;;;;8365216;28;20634;-79
2023/12/13 18:05:57;;;;;;;156.77;22.35;;;;;7.80;94745.00;;;;8365310;28;20197;-81
2023/12/13 18:10:04;;;;;;;381.60;23.83;;;;;7.70;94753.00;;;;8364320;28;20315;-80
2023/12/13 18:14:08;;;;;;;224.93;17.27;;;;;7.60;94752.00;;;;8364758;28;20223;-79
2023/12/13 18:18:11;;;;;;;385.60;27.25;;;;;7.40;94756.00;;;;8364216;28;20227;-80
2023/12/13 18:22:14;;;;;;;604.30;31.30;;;;;7.40;94765.00;;;;8364560;28;20239;-79
2023/12/13 18:26:19;;;;;;;229.03;20.60;;;;;7.40;94766.00;;;;8364888;28;20533;-79
2023/12/13 18:30:22;;;;;;;356.80;30.23;;;;;7.50;94760.00;;;;8364555;28;20247;-80
2023/12/13 18:34:25;;;;;;;308.17;23.67;;;;;7.50;94762.00;;;;8364584;28;20200;-80
2023/12/13 18:38:29;;;;;;;647.83;36.63;;;;;7.40;94776.00;;;;8372140;28;20641;-81
2023/12/13 18:42:35;;;;;;;71.20;17.33;;;;;7.40;94781.00;;;;8369621;28;20200;-79
2023/12/13 18:46:38;;;;;;;157.27;21.37;;;;;7.50;94791.00;;;;8369567;28;20281;-80
2023/12/13 18:50:41;;;;;;;262.93;24.70;;;;;7.50;94783.00;;;;8370083;28;20228;-79
2023/12/13 18:54:45;;;;;;;251.67;23.90;;;;;7.50;94790.00;;;;8370948;28;20291;-78
2023/12/13 18:58:50;;;;;;;71.73;20.20;;;;;7.50;94792.00;;;;8370372;28;20307;-79
2023/12/13 19:02:53;;;;;;;123.27;22.20;;;;;7.50;94794.00;;;;8365640;28;20220;-78
2023/12/13 19:07:01;;;;;;;115.07;22.80;;;;;7.60;94797.00;;;;8369345;28;20283;-80
2023/12/13 19:11:05;;;;;;;95.07;21.53;;;;;7.60;94794.00;;;;8370175;28;20292;-79
2023/12/13 19:15:10;;;;;;;133.03;29.97;;;;;7.70;94794.00;;;;8370015;28;20193;-78
2023/12/13 19:19:13;;;;;;;147.53;25.67;;;;;7.70;94801.00;;;;8370337;28;20196;-78
2023/12/13 19:23:16;;;;;;;214.57;26.10;;;;;7.70;94809.00;;;;8370275;28;20196;-79
2023/12/13 19:27:20;;;;;;;130.83;23.07;;;;;7.70;94806.00;;;;8370454;28;20208;-77
2023/12/13 19:31:24;;;;;;;289.00;28.73;;;;;7.70;94812.00;;;;8369566;28;20221;-78
2023/12/13 19:35:27;;;;;;;237.33;26.77;;;;;7.70;94813.00;;;;8368531;28;20215;-78
2023/12/13 19:39:30;;;;;;;91.97;22.00;;;;;7.70;94819.00;;;;8368582;28;20189;-78
2023/12/13 19:43:34;;;;;;;107.10;20.47;;;;;7.60;94823.00;;;;8368814;28;20228;-81
2023/12/13 19:47:38;;;;;;;604.72;32.45;;;;;7.60;94812.00;;;;8365239;28;20196;-80
2023/12/13 19:51:41;;;;;;;589.97;35.97;;;;;7.50;94819.00;;;;8366172;28;20700;-80
2023/12/13 19:55:46;;;;;;;687.00;38.50;;;;;7.40;94822.00;;;;8368730;28;20196;-76
2023/12/13 19:59:49;;;;;;;615.00;36.07;;;;;7.30;94829.00;;;;8367943;28;20193;-76
2023/12/13 20:03:53;;;;;;;467.50;28.47;;;;;7.20;94826.00;;;;8368486;28;20224;-76
2023/12/13 20:07:57;;;;;;;671.47;38.87;;;;;7.10;94825.00;;;;8364534;28;20203;-76
2023/12/13 20:12:00;;;;;;;517.33;29.87;;;;;6.90;94826.00;;;;8368488;28;20542;-76
2023/12/13 20:16:03;;;;;;;396.90;25.43;;;;;6.60;94827.00;;;;8367051;28;20283;-76
2023/12/13 20:20:09;;;;;;;462.20;29.83;;;;;6.60;94838.00;;;;8368427;28;20222;-76
2023/12/13 20:24:13;;;;;;;392.10;27.13;;;;;6.60;94840.00;;;;8367622;28;20177;-76